Time;durP1;ratioP1;P1;durP2;ratioP2;P2;SDS_P1;SDS_P2;PMS_P1;PMS_P2;Temp;Humidity;BMP_temperature;BMP_pressure;BME280_temperature;BME280_humidity;BME280_pressure;Samples;Min_cycle;Max_cycle;Signal;HPM_P1;HPM_P2
2021/03/02 00:00:14;;;;;;;10.93;6.83;;;;;;;2.86;64.70;96814.53;5030426;28;20197;-79
2021/03/02 00:02:41;;;;;;;10.13;6.57;;;;;;;2.81;64.89;96815.56;5048279;28;20186;-79
2021/03/02 00:05:07;;;;;;;11.20;7.23;;;;;;;2.80;65.04;96815.66;5014143;28;20179;-79
2021/03/02 00:07:34;;;;;;;11.50;8.00;;;;;;;2.82;65.11;96813.84;5013870;28;20184;-78
2021/03/02 00:09:59;;;;;;;10.53;7.20;;;;;;;2.77;64.91;96821.75;5030289;28;20706;-79
2021/03/02 00:12:26;;;;;;;12.67;7.60;;;;;;;2.77;64.89;96814.06;5037433;28;20206;-79
2021/03/02 00:14:52;;;;;;;11.00;6.93;;;;;;;2.80;65.15;96813.91;5046343;28;20190;-79
2021/03/02 00:17:55;;;;;;;10.33;7.27;;;;;;;2.92;64.77;96822.81;5030498;28;20597;-78
2021/03/02 00:20:22;;;;;;;10.53;6.77;;;;;;;2.99;64.83;96819.03;5022913;28;20551;-77
2021/03/02 00:22:53;;;;;;;9.80;7.40;;;;;;;2.86;64.77;96824.81;5018737;28;20179;-79
2021/03/02 00:25:18;;;;;;;10.67;6.60;;;;;;;2.88;64.98;96828.13;5034051;28;20212;-78
2021/03/02 00:27:44;;;;;;;9.73;6.53;;;;;;;2.88;64.96;96828.97;5033536;28;20201;-77
2021/03/02 00:30:10;;;;;;;12.70;7.57;;;;;;;2.94;64.92;96828.69;5033813;28;20194;-77
2021/03/02 00:32:37;;;;;;;14.23;7.53;;;;;;;2.91;64.69;96830.53;5032806;28;20221;-78
2021/03/02 00:35:02;;;;;;;12.33;7.87;;;;;;;2.90;64.50;96826.31;5015342;28;20183;-78
2021/03/02 00:37:27;;;;;;;10.33;7.43;;;;;;;2.81;65.26;96828.41;5033836;28;20195;-78
2021/03/02 00:39:53;;;;;;;9.87;7.13;;;;;;;2.85;65.08;96831.69;5032300;28;20200;-78
2021/03/02 00:42:18;;;;;;;12.53;7.57;;;;;;;2.93;64.64;96833.91;5033184;28;20597;-79
2021/03/02 00:44:43;;;;;;;11.63;7.77;;;;;;;2.93;64.97;96837.28;5030895;28;20206;-78
2021/03/02 00:47:08;;;;;;;12.20;7.40;;;;;;;2.97;64.95;96831.09;5033614;28;20181;-78
2021/03/02 00:49:34;;;;;;;13.33;7.17;;;;;;;2.88;65.00;96831.53;5032403;28;20245;-78
2021/03/02 00:52:00;;;;;;;11.97;7.33;;;;;;;2.81;65.30;96830.97;5032385;28;20265;-78
2021/03/02 00:54:25;;;;;;;10.53;7.33;;;;;;;2.80;64.84;96829.31;5031190;28;20664;-78
2021/03/02 00:56:51;;;;;;;10.17;7.27;;;;;;;2.89;65.03;96829.78;5012522;28;20186;-79
2021/03/02 00:59:16;;;;;;;11.17;7.30;;;;;;;2.88;65.12;96828.97;5012472;28;20198;-78
2021/03/02 01:01:41;;;;;;;11.80;7.07;;;;;;;2.85;65.00;96836.81;5012485;28;20237;-78
2021/03/02 01:04:06;;;;;;;11.33;7.17;;;;;;;2.87;65.39;96835.00;5012249;28;20547;-78
2021/03/02 01:06:32;;;;;;;13.53;8.33;;;;;;;2.80;65.14;96828.47;5024338;28;20715;-78
2021/03/02 01:08:57;;;;;;;9.90;6.77;;;;;;;2.84;65.06;96828.28;5032063;28;20177;-79
2021/03/02 01:11:22;;;;;;;11.50;7.47;;;;;;;2.75;65.65;96836.38;5032396;28;20211;-80
2021/03/02 01:13:48;;;;;;;10.77;7.27;;;;;;;2.73;65.48;96833.03;5016754;28;20215;-79
2021/03/02 01:16:13;;;;;;;14.73;7.90;;;;;;;2.77;65.04;96829.44;5029481;28;20213;-79
2021/03/02 01:18:38;;;;;;;11.67;7.47;;;;;;;2.81;65.40;96828.41;5014678;28;20209;-79
2021/03/02 01:21:04;;;;;;;10.77;7.60;;;;;;;2.72;65.39;96836.50;5013085;28;20685;-80
2021/03/02 01:23:30;;;;;;;12.27;7.93;;;;;;;2.69;65.50;96828.13;5014587;28;20202;-80
2021/03/02 01:25:55;;;;;;;12.77;8.00;;;;;;;2.60;65.36;96825.97;5013260;28;20187;-79
2021/03/02 01:28:20;;;;;;;10.57;7.37;;;;;;;2.66;65.79;96826.53;5014499;28;20237;-79
2021/03/02 01:30:46;;;;;;;12.30;7.97;;;;;;;2.52;65.89;96824.56;5013096;28;20249;-79
2021/03/02 01:33:11;;;;;;;14.17;8.83;;;;;;;2.57;65.81;96826.94;5012729;28;20745;-78
2021/03/02 01:35:36;;;;;;;11.17;7.40;;;;;;;2.63;65.78;96818.13;4996533;28;20188;-79
2021/03/02 01:38:02;;;;;;;16.63;7.80;;;;;;;2.53;66.12;96820.28;5017207;28;20201;-79
2021/03/02 01:40:29;;;;;;;12.37;7.87;;;;;;;2.54;65.98;96821.94;5012981;28;20207;-80
2021/03/02 01:42:54;;;;;;;12.33;7.23;;;;;;;2.55;66.40;96815.91;5013399;28;20176;-79
2021/03/02 01:45:20;;;;;;;14.17;8.80;;;;;;;2.49;66.10;96818.75;5012735;28;20688;-79
2021/03/02 01:47:48;;;;;;;11.07;7.60;;;;;;;2.45;66.25;96812.91;5014524;28;20175;-79
2021/03/02 01:50:13;;;;;;;12.97;7.67;;;;;;;2.51;66.42;96816.94;5012492;28;20204;-79
2021/03/02 01:52:39;;;;;;;13.90;8.50;;;;;;;2.53;66.59;96818.53;5014039;28;20249;-79
2021/03/02 01:55:05;;;;;;;14.60;8.73;;;;;;;2.53;66.41;96813.41;5013268;28;20202;-80
2021/03/02 01:57:31;;;;;;;14.10;8.67;;;;;;;2.53;66.82;96813.41;5013955;28;20625;-79
2021/03/02 01:59:56;;;;;;;13.17;7.97;;;;;;;2.63;66.54;96810.44;5012143;28;20216;-79
2021/03/02 02:02:43;;;;;;;11.70;7.93;;;;;;;2.74;66.03;96809.06;5012238;28;20188;-79
2021/03/02 02:05:10;;;;;;;12.23;8.33;;;;;;;2.80;65.97;96801.09;5012290;28;20639;-78
2021/03/02 02:07:38;;;;;;;11.90;7.80;;;;;;;2.73;66.51;96809.13;5012490;28;20186;-79
2021/03/02 02:10:09;;;;;;;13.20;7.23;;;;;;;2.82;66.28;96803.56;5020049;28;20208;-80
2021/03/02 02:12:39;;;;;;;12.10;8.07;;;;;;;2.79;66.22;96803.72;5033455;28;20256;-79
2021/03/02 02:15:10;;;;;;;13.97;8.50;;;;;;;2.87;65.97;96801.66;5032000;28;20264;-80
2021/03/02 02:18:00;;;;;;;10.27;6.80;;;;;;;2.86;65.95;96805.13;5016220;28;20527;-79
2021/03/02 02:20:36;;;;;;;10.53;7.23;;;;;;;2.86;65.64;96802.56;5027801;28;20211;-79
2021/03/02 02:23:14;;;;;;;11.17;7.73;;;;;;;2.80;66.37;96802.81;5011582;28;20543;-79
2021/03/02 02:25:48;;;;;;;10.97;7.20;;;;;;;2.81;66.11;96800.19;5012525;28;20181;-79
2021/03/02 02:28:16;;;;;;;11.97;7.87;;;;;;;2.87;65.94;96793.94;5011439;28;20177;-79
2021/03/02 02:30:43;;;;;;;13.23;8.10;;;;;;;2.94;65.85;96795.34;4995838;28;20667;-79
2021/03/02 02:33:11;;;;;;;11.53;7.83;;;;;;;2.84;66.14;96794.94;5011222;28;20366;-78
2021/03/02 02:35:39;;;;;;;13.10;7.13;;;;;;;2.95;65.85;96794.44;4994652;28;20182;-78
2021/03/02 02:38:05;;;;;;;10.10;7.37;;;;;;;2.83;66.10;96792.44;5011108;28;20182;-78
2021/03/02 02:40:31;;;;;;;13.17;8.33;;;;;;;2.74;65.93;96801.38;5011345;28;20684;-79
2021/03/02 02:42:57;;;;;;;9.87;7.00;;;;;;;2.77;66.33;96803.78;5025738;28;20254;-78
2021/03/02 02:45:22;;;;;;;10.07;6.87;;;;;;;2.62;66.63;96804.47;5030746;28;20657;-79
2021/03/02 02:47:49;;;;;;;13.63;7.67;;;;;;;2.64;66.77;96805.22;5031005;28;20193;-79
2021/03/02 02:50:15;;;;;;;10.60;7.33;;;;;;;2.59;67.18;96801.22;5014222;28;20206;-78
2021/03/02 02:52:41;;;;;;;11.27;7.67;;;;;;;2.52;67.26;96800.66;5024159;28;20583;-79
2021/03/02 02:55:07;;;;;;;11.30;7.50;;;;;;;2.57;67.06;96810.72;5027560;28;20605;-79
2021/03/02 02:57:41;;;;;;;12.50;7.83;;;;;;;2.48;67.44;96804.28;5027776;28;20615;-79
2021/03/02 03:00:07;;;;;;;12.07;7.47;;;;;;;2.32;67.81;96801.53;5011069;28;20199;-79
2021/03/02 03:02:34;;;;;;;11.53;7.97;;;;;;;2.38;67.46;96808.94;5012574;28;20188;-79
2021/03/02 03:05:12;;;;;;;11.57;7.77;;;;;;;2.20;67.52;96808.00;5030286;28;20188;-79
2021/03/02 03:07:42;;;;;;;11.83;7.83;;;;;;;2.06;68.19;96800.09;5031086;28;20530;-79
2021/03/02 03:10:08;;;;;;;9.80;7.57;;;;;;;1.94;68.55;96798.91;5030670;28;20200;-79
2021/03/02 03:12:37;;;;;;;12.23;7.63;;;;;;;1.92;68.86;96799.84;5033564;28;20209;-79
2021/03/02 03:15:04;;;;;;;12.53;8.37;;;;;;;1.86;69.08;96798.38;5018923;28;20183;-79
2021/03/02 03:17:37;;;;;;;13.20;8.03;;;;;;;1.90;69.40;96794.78;5031121;28;20184;-79
2021/03/02 03:20:08;;;;;;;16.77;8.43;;;;;;;1.90;69.44;96789.66;5014657;28;20834;-79
2021/03/02 03:22:34;;;;;;;14.93;8.47;;;;;;;1.94;69.52;96795.47;5031074;28;20175;-79
2021/03/02 03:25:01;;;;;;;13.37;9.80;;;;;;;1.93;69.54;96791.25;5025704;28;20221;-79
2021/03/02 03:27:28;;;;;;;14.23;9.00;;;;;;;1.87;69.94;96784.69;4998351;28;20244;-79
2021/03/02 03:29:53;;;;;;;14.23;9.10;;;;;;;1.85;69.63;96795.88;5013855;28;20253;-79
2021/03/02 03:32:19;;;;;;;18.03;9.30;;;;;;;1.87;69.98;96789.81;4998175;28;20190;-79
2021/03/02 03:34:45;;;;;;;11.13;8.50;;;;;;;1.74;69.93;96798.03;5014786;28;20271;-78
2021/03/02 03:37:10;;;;;;;12.27;7.70;;;;;;;1.63;70.06;96801.06;5034224;28;20257;-79
2021/03/02 03:39:35;;;;;;;16.80;9.77;;;;;;;1.52;70.68;96788.69;5017676;28;20203;-79
2021/03/02 03:42:01;;;;;;;14.70;9.00;;;;;;;1.42;70.47;96793.34;5017573;28;20281;-78
2021/03/02 03:44:26;;;;;;;13.37;8.73;;;;;;;1.31;71.01;96785.25;5033777;28;20181;-79
2021/03/02 03:46:52;;;;;;;13.23;8.27;;;;;;;1.28;70.99;96787.94;5021308;28;20228;-79
2021/03/02 03:49:18;;;;;;;13.30;9.17;;;;;;;1.33;70.97;96786.03;5014318;28;20263;-78
2021/03/02 03:51:45;;;;;;;13.10;8.57;;;;;;;1.40;71.12;96784.88;5015549;28;20182;-79
2021/03/02 03:54:14;;;;;;;12.47;8.90;;;;;;;1.38;71.30;96785.84;5018269;28;20204;-79
2021/03/02 03:56:41;;;;;;;13.83;9.00;;;;;;;1.33;71.35;96788.59;5033548;28;20190;-79
2021/03/02 03:59:07;;;;;;;15.40;8.60;;;;;;;1.54;71.65;96784.34;5033539;28;20223;-79
2021/03/02 04:01:33;;;;;;;12.87;9.53;;;;;;;1.56;71.46;96785.09;5033882;28;20545;-78
2021/03/02 04:03:58;;;;;;;14.43;9.30;;;;;;;1.72;71.62;96785.31;5017057;28;20184;-79
2021/03/02 04:06:24;;;;;;;14.20;9.50;;;;;;;1.72;71.19;96795.56;5031670;28;20193;-79
2021/03/02 04:08:49;;;;;;;16.20;10.37;;;;;;;1.81;71.38;96796.91;5019400;28;20291;-79
2021/03/02 04:11:15;;;;;;;15.60;10.17;;;;;;;1.88;71.28;96791.47;5014038;28;20198;-78
2021/03/02 04:13:40;;;;;;;12.73;9.83;;;;;;;1.89;71.01;96795.69;4997057;28;20295;-79
2021/03/02 04:16:05;;;;;;;16.37;10.43;;;;;;;1.84;71.48;96792.47;5018503;28;20219;-79
2021/03/02 04:18:31;;;;;;;18.50;10.67;;;;;;;1.88;70.99;96796.59;5013213;28;20302;-78
2021/03/02 04:20:57;;;;;;;17.40;10.90;;;;;;;1.92;70.36;96794.72;5014714;28;20245;-78
2021/03/02 04:23:22;;;;;;;16.20;9.43;;;;;;;1.96;70.81;96791.97;5013013;28;20171;-79
2021/03/02 04:25:48;;;;;;;15.70;10.47;;;;;;;2.08;70.52;96800.03;5014630;28;20187;-78
2021/03/02 04:28:13;;;;;;;16.73;10.23;;;;;;;2.11;70.33;96799.88;5032721;28;20178;-78
2021/03/02 04:30:38;;;;;;;19.20;11.90;;;;;;;2.05;70.59;96803.56;5034389;28;20198;-80
2021/03/02 04:33:04;;;;;;;17.23;11.17;;;;;;;2.04;70.22;96799.34;5033096;28;20217;-79
2021/03/02 04:35:29;;;;;;;23.63;12.97;;;;;;;1.99;70.22;96798.69;5033080;28;20192;-78
2021/03/02 04:37:55;;;;;;;17.43;11.87;;;;;;;2.15;70.43;96804.00;5032665;28;20651;-79
2021/03/02 04:40:21;;;;;;;13.93;9.97;;;;;;;2.15;69.80;96804.00;5033877;28;20212;-78
2021/03/02 04:42:46;;;;;;;15.27;10.07;;;;;;;2.19;69.47;96805.53;5032528;28;20254;-79
2021/03/02 04:45:13;;;;;;;16.93;9.90;;;;;;;2.26;69.34;96809.50;5032404;28;20244;-79
2021/03/02 04:47:40;;;;;;;17.53;10.70;;;;;;;2.23;69.51;96807.06;5028041;28;20611;-79
2021/03/02 04:50:06;;;;;;;16.33;9.83;;;;;;;2.19;69.52;96810.66;4996282;28;20231;-79
2021/03/02 04:52:32;;;;;;;16.47;10.90;;;;;;;2.18;69.30;96814.09;4996136;28;20203;-79
2021/03/02 04:54:57;;;;;;;15.83;10.40;;;;;;;2.15;69.33;96812.53;4996292;28;20190;-78
2021/03/02 04:57:23;;;;;;;17.07;10.30;;;;;;;2.07;69.68;96814.56;5013803;28;20210;-80
2021/03/02 04:59:48;;;;;;;20.43;11.03;;;;;;;1.96;69.91;96809.06;5020881;28;20221;-79
2021/03/02 05:02:13;;;;;;;13.07;9.67;;;;;;;1.90;70.31;96811.88;5025746;28;20248;-80
2021/03/02 05:04:39;;;;;;;16.70;10.13;;;;;;;1.84;70.30;96814.69;5038739;28;20181;-79
2021/03/02 05:07:04;;;;;;;20.47;10.20;;;;;;;1.79;70.44;96809.78;5032482;28;20183;-78
2021/03/02 05:09:29;;;;;;;14.23;9.27;;;;;;;1.74;70.82;96808.28;5032352;28;20257;-80
2021/03/02 05:11:55;;;;;;;16.63;9.90;;;;;;;1.66;70.50;96806.03;5026426;28;20255;-80
2021/03/02 05:14:20;;;;;;;17.57;10.73;;;;;;;1.62;70.75;96801.94;5033995;28;20210;-79
2021/03/02 05:16:45;;;;;;;20.10;11.77;;;;;;;1.61;71.10;96813.09;5033017;28;20181;-79
2021/03/02 05:19:11;;;;;;;25.07;15.23;;;;;;;1.54;71.19;96804.00;5027632;28;20207;-79
2021/03/02 05:21:36;;;;;;;22.07;13.97;;;;;;;1.47;71.32;96807.69;5026054;28;20191;-79
2021/03/02 05:24:01;;;;;;;20.47;13.73;;;;;;;1.43;71.10;96809.53;5029155;28;20185;-79
2021/03/02 05:26:27;;;;;;;19.37;12.37;;;;;;;1.46;71.36;96808.59;5032121;28;20221;-79
2021/03/02 05:28:52;;;;;;;17.67;11.23;;;;;;;1.53;71.29;96805.72;5015803;28;20187;-80
2021/03/02 05:31:17;;;;;;;16.90;10.23;;;;;;;1.60;71.22;96801.19;5020636;28;20187;-80
2021/03/02 05:33:43;;;;;;;16.90;11.30;;;;;;;1.70;70.81;96802.47;5011725;28;20215;-78
2021/03/02 05:36:08;;;;;;;17.53;11.57;;;;;;;1.81;70.49;96796.91;4996120;28;20187;-80
2021/03/02 05:38:35;;;;;;;17.93;12.23;;;;;;;1.88;70.47;96806.00;5012884;28;20329;-79
2021/03/02 05:41:02;;;;;;;15.97;10.63;;;;;;;1.79;70.40;96799.53;5013785;28;20207;-80
2021/03/02 05:43:27;;;;;;;17.43;10.73;;;;;;;1.74;71.18;96804.00;4996444;28;20690;-79
2021/03/02 05:45:52;;;;;;;17.70;11.43;;;;;;;1.74;70.78;96805.72;5012704;28;20270;-80
2021/03/02 05:48:18;;;;;;;15.23;10.60;;;;;;;1.59;71.10;96804.63;5012871;28;20190;-79
2021/03/02 05:50:43;;;;;;;16.33;10.53;;;;;;;1.48;71.19;96801.66;5012853;28;20205;-80
2021/03/02 05:53:09;;;;;;;15.63;10.77;;;;;;;1.37;71.86;96802.09;5011596;28;20229;-80
2021/03/02 05:55:37;;;;;;;16.20;10.20;;;;;;;1.27;71.74;96808.47;5015589;28;20205;-80
2021/03/02 05:58:06;;;;;;;16.00;10.60;;;;;;;1.22;72.08;96810.38;5032879;28;20263;-80
2021/03/02 06:00:32;;;;;;;14.43;9.27;;;;;;;1.23;72.26;96812.88;5032648;28;20612;-80
2021/03/02 06:02:58;;;;;;;15.03;10.47;;;;;;;1.13;72.22;96806.44;5030798;28;20190;-81
2021/03/02 06:05:23;;;;;;;15.20;10.23;;;;;;;1.11;72.09;96809.06;5032238;28;20228;-79
2021/03/02 06:07:49;;;;;;;16.50;11.00;;;;;;;1.01;72.07;96807.75;5015619;28;20184;-80
2021/03/02 06:10:17;;;;;;;16.33;10.90;;;;;;;1.04;72.54;96817.03;5015660;28;20210;-80
2021/03/02 06:12:53;;;;;;;15.37;10.77;;;;;;;1.01;72.40;96818.00;5031283;28;20476;-78
2021/03/02 06:15:19;;;;;;;16.03;10.07;;;;;;;0.98;72.73;96823.25;5012823;28;20190;-79
2021/03/02 06:17:46;;;;;;;16.40;10.17;;;;;;;1.01;72.58;96818.00;5012635;28;20187;-80
2021/03/02 06:20:21;;;;;;;17.83;10.13;;;;;;;1.14;72.47;96818.34;5012570;28;20195;-80
2021/03/02 06:22:47;;;;;;;14.70;9.97;;;;;;;1.07;72.44;96822.06;5012719;28;20178;-79
2021/03/02 06:25:26;;;;;;;15.50;10.03;;;;;;;1.02;72.60;96829.06;5028058;28;20317;-78
2021/03/02 06:27:52;;;;;;;16.70;10.87;;;;;;;0.98;72.75;96824.97;5032336;28;20654;-79
2021/03/02 06:30:18;;;;;;;16.10;10.50;;;;;;;0.96;73.17;96827.56;5032130;28;20198;-80
2021/03/02 06:32:47;;;;;;;15.37;9.90;;;;;;;0.98;72.70;96832.63;5015743;28;20202;-78
2021/03/02 06:35:30;;;;;;;14.83;9.90;;;;;;;0.96;72.99;96829.28;5005399;28;20265;-79
2021/03/02 06:37:55;;;;;;;18.00;10.83;;;;;;;1.11;72.62;96833.81;5013943;28;20550;-79
2021/03/02 06:40:46;;;;;;;19.00;10.37;;;;;;;1.11;72.84;96838.94;4995787;28;20203;-80
2021/03/02 06:43:34;;;;;;;17.67;10.30;;;;;;;1.22;72.56;96841.91;5012693;28;20182;-80
2021/03/02 06:46:05;;;;;;;14.87;9.87;;;;;;;1.51;71.73;96834.84;5015312;28;20179;-81
2021/03/02 06:48:49;;;;;;;16.03;10.33;;;;;;;1.51;71.55;96843.34;5016090;28;20213;-80
2021/03/02 06:51:30;;;;;;;17.43;11.23;;;;;;;1.59;71.38;96841.31;5016693;28;20179;-80
2021/03/02 06:54:03;;;;;;;17.60;11.63;;;;;;;1.72;71.00;96839.09;5018261;28;20234;-80
2021/03/02 06:56:28;;;;;;;14.77;10.07;;;;;;;1.84;70.92;96841.13;5026370;28;20229;-80
2021/03/02 06:59:18;;;;;;;16.07;9.23;;;;;;;1.90;70.30;96846.03;5034991;28;20213;-80
2021/03/02 07:01:45;;;;;;;13.77;9.53;;;;;;;2.02;69.71;96846.41;5018834;28;20220;-80
2021/03/02 07:04:16;;;;;;;13.30;9.10;;;;;;;2.04;69.79;96842.91;5035023;28;20178;-80
2021/03/02 07:06:42;;;;;;;14.43;9.30;;;;;;;2.21;69.32;96844.75;5029202;28;20179;-80
2021/03/02 07:09:09;;;;;;;15.20;9.60;;;;;;;2.26;69.02;96842.81;5015169;28;20675;-79
2021/03/02 07:11:36;;;;;;;15.10;9.10;;;;;;;2.42;68.40;96841.25;4999076;28;20219;-80
2021/03/02 07:14:04;;;;;;;11.43;8.17;;;;;;;2.52;67.47;96842.53;5015030;28;20618;-80
2021/03/02 07:16:29;;;;;;;13.37;8.47;;;;;;;2.65;67.52;96849.66;5031426;28;20183;-80
2021/03/02 07:18:58;;;;;;;11.87;7.43;;;;;;;2.73;67.15;96853.56;5016459;28;20198;-80
2021/03/02 07:21:24;;;;;;;13.33;8.60;;;;;;;2.86;66.91;96859.00;5015278;28;20581;-81
2021/03/02 07:23:50;;;;;;;10.60;7.77;;;;;;;2.98;66.20;96855.88;5015483;28;20177;-80
2021/03/02 07:26:17;;;;;;;12.57;8.37;;;;;;;3.10;66.09;96863.03;4998444;28;20182;-80
2021/03/02 07:28:43;;;;;;;13.10;8.87;;;;;;;3.18;66.51;96866.94;4999519;28;20191;-80
2021/03/02 07:31:09;;;;;;;12.00;8.03;;;;;;;3.23;66.75;96867.59;4998759;28;20692;-80
2021/03/02 07:33:39;;;;;;;12.07;8.67;;;;;;;3.24;66.39;96870.06;4998207;28;20202;-80
2021/03/02 07:36:04;;;;;;;13.10;8.80;;;;;;;3.25;67.26;96871.75;5015107;28;20635;-80
2021/03/02 07:38:30;;;;;;;15.13;9.00;;;;;;;3.27;67.73;96874.22;5002992;28;20248;-80
2021/03/02 07:40:56;;;;;;;13.70;9.40;;;;;;;3.36;67.77;96879.81;5035683;28;20213;-81
2021/03/02 07:43:33;;;;;;;13.07;8.93;;;;;;;3.35;66.75;96874.72;5034743;28;20648;-80
2021/03/02 07:46:00;;;;;;;15.23;9.73;;;;;;;3.27;66.44;96877.66;5034595;28;20534;-80
2021/03/02 07:48:35;;;;;;;12.93;9.50;;;;;;;3.22;66.19;96881.31;5034762;28;20261;-79
2021/03/02 07:51:21;;;;;;;13.53;9.27;;;;;;;3.13;66.89;96878.28;5017360;28;20267;-80
2021/03/02 07:53:51;;;;;;;13.27;9.03;;;;;;;3.12;66.84;96881.75;5041405;28;20691;-80
2021/03/02 07:56:22;;;;;;;13.80;9.57;;;;;;;3.18;67.23;96882.34;5020231;28;20186;-80
2021/03/02 07:59:02;;;;;;;12.57;8.97;;;;;;;3.30;67.48;96879.25;5029554;28;20528;-81
2021/03/02 08:01:28;;;;;;;12.67;9.20;;;;;;;3.45;66.94;96877.72;5032156;28;20187;-81
2021/03/02 08:04:13;;;;;;;11.20;8.57;;;;;;;3.49;67.16;96884.34;5034471;28;20186;-80
2021/03/02 08:06:38;;;;;;;12.67;9.07;;;;;;;3.61;67.36;96889.72;5035246;28;20250;-81
2021/03/02 08:09:33;;;;;;;12.90;8.57;;;;;;;3.80;66.87;96888.84;5033917;28;20582;-81
2021/03/02 08:12:24;;;;;;;11.63;8.50;;;;;;;3.97;66.36;96888.88;4982133;28;20210;-81
2021/03/02 08:14:49;;;;;;;17.13;10.97;;;;;;;4.16;66.07;96892.25;4977626;28;20192;-80
2021/03/02 08:17:19;;;;;;;14.87;10.67;;;;;;;4.38;64.91;96894.56;4977288;28;20714;-80
2021/03/02 08:19:48;;;;;;;14.17;10.87;;;;;;;4.56;64.71;96890.22;4977421;28;20203;-80
2021/03/02 08:22:26;;;;;;;14.87;11.17;;;;;;;4.61;63.84;96895.16;4995682;28;20204;-80
2021/03/02 08:24:54;;;;;;;16.03;11.73;;;;;;;4.68;63.51;96899.91;5016576;28;20187;-80
2021/03/02 08:27:48;;;;;;;13.57;10.03;;;;;;;4.80;62.79;96901.84;4996685;28;20202;-80
2021/03/02 08:30:16;;;;;;;15.70;9.50;;;;;;;4.88;62.21;96909.16;4997602;28;20207;-80
2021/03/02 08:32:42;;;;;;;12.33;9.30;;;;;;;4.94;62.30;96905.44;5003275;28;20323;-77
2021/03/02 08:35:10;;;;;;;12.93;9.47;;;;;;;5.06;61.27;96905.63;4986167;28;20658;-79
2021/03/02 08:37:46;;;;;;;13.63;10.27;;;;;;;5.21;60.20;96916.00;4994190;28;20650;-79
2021/03/02 08:40:33;;;;;;;13.23;9.30;;;;;;;5.36;59.93;96908.31;5022635;28;20210;-79
2021/03/02 08:43:09;;;;;;;14.57;9.43;;;;;;;5.57;58.91;96926.13;4998362;28;20211;-78
2021/03/02 08:45:52;;;;;;;11.87;8.87;;;;;;;5.61;58.34;96912.13;4998946;28;20276;-77
2021/03/02 08:48:31;;;;;;;12.10;9.13;;;;;;;5.69;57.92;96915.13;5013075;28;20186;-75
2021/03/02 08:51:08;;;;;;;12.43;9.20;;;;;;;5.67;58.04;96922.94;5032960;28;20300;-78
2021/03/02 08:53:38;;;;;;;11.53;8.80;;;;;;;5.71;57.10;96918.44;5015922;28;20237;-77
2021/03/02 08:56:08;;;;;;;12.43;8.90;;;;;;;5.70;57.44;96921.94;5029620;28;20566;-78
2021/03/02 08:58:41;;;;;;;12.77;8.90;;;;;;;5.79;56.79;96918.84;5026802;28;20186;-78
2021/03/02 09:01:13;;;;;;;12.30;9.30;;;;;;;5.86;56.89;96925.34;5032202;28;20202;-78
2021/03/02 09:03:44;;;;;;;11.37;9.33;;;;;;;5.86;57.39;96922.75;5032300;28;20178;-78
2021/03/02 09:06:20;;;;;;;11.60;8.73;;;;;;;5.96;56.63;96918.78;4996468;28;20197;-77
2021/03/02 09:08:50;;;;;;;21.03;13.37;;;;;;;6.08;56.62;96921.59;5012728;28;20206;-78
2021/03/02 09:11:16;;;;;;;10.87;8.57;;;;;;;6.17;56.64;96921.06;5013071;28;20629;-78
2021/03/02 09:13:42;;;;;;;14.47;10.20;;;;;;;6.27;56.33;96922.19;5037572;28;20294;-78
2021/03/02 09:16:27;;;;;;;12.47;8.40;;;;;;;6.30;56.37;96922.03;5025408;28;20261;-78
2021/03/02 09:19:02;;;;;;;11.83;7.87;;;;;;;6.35;55.55;96929.50;5032330;28;20340;-78
2021/03/02 09:21:28;;;;;;;11.80;8.17;;;;;;;6.38;55.46;96925.00;5034090;28;20174;-77
2021/03/02 09:23:53;;;;;;;11.80;8.40;;;;;;;6.54;54.72;96932.72;5032335;28;20572;-78
2021/03/02 09:26:20;;;;;;;10.67;8.27;;;;;;;6.69;54.41;96936.94;5037345;28;20183;-78
2021/03/02 09:28:51;;;;;;;11.17;8.43;;;;;;;6.91;55.22;96933.13;5012090;28;20171;-78
2021/03/02 09:31:16;;;;;;;12.00;8.07;;;;;;;7.15;54.56;96943.72;5012730;28;20189;-78
2021/03/02 09:33:42;;;;;;;12.43;8.80;;;;;;;7.21;54.95;96943.34;5012045;28;20678;-78
2021/03/02 09:36:07;;;;;;;12.33;9.03;;;;;;;7.27;54.24;96935.25;5016369;28;20186;-78
2021/03/02 09:38:32;;;;;;;15.40;8.93;;;;;;;7.43;53.32;96945.47;5015921;28;20611;-78
2021/03/02 09:40:58;;;;;;;11.70;7.93;;;;;;;7.34;53.69;96947.69;5031968;28;20678;-77
2021/03/02 09:43:37;;;;;;;12.17;8.70;;;;;;;7.34;53.10;96952.88;5031651;28;20197;-79
2021/03/02 09:46:03;;;;;;;10.17;8.40;;;;;;;7.31;52.92;96949.63;5027824;28;20200;-79
2021/03/02 09:48:44;;;;;;;12.10;8.40;;;;;;;7.45;52.67;96948.78;5028088;28;20187;-77
2021/03/02 09:51:32;;;;;;;11.73;8.33;;;;;;;7.43;53.06;96953.22;5029367;28;20202;-78
2021/03/02 09:54:15;;;;;;;11.90;8.60;;;;;;;7.53;52.69;96952.56;5028281;28;20195;-79
2021/03/02 09:56:45;;;;;;;16.30;9.53;;;;;;;7.53;52.79;96951.75;5047814;28;20189;-78
2021/03/02 09:59:19;;;;;;;11.87;8.83;;;;;;;7.60;52.05;96953.84;5025434;28;20210;-78
2021/03/02 10:01:44;;;;;;;11.67;8.13;;;;;;;7.68;52.80;96955.94;5031442;28;20187;-78
2021/03/02 10:04:10;;;;;;;11.53;8.27;;;;;;;7.77;52.43;96954.53;5030822;28;20225;-78
2021/03/02 10:06:36;;;;;;;13.00;9.17;;;;;;;7.83;52.79;96956.75;5031319;28;20170;-78
2021/03/02 10:09:01;;;;;;;12.33;8.87;;;;;;;7.84;53.15;96961.81;5022328;28;20175;-78
2021/03/02 10:11:27;;;;;;;14.00;9.40;;;;;;;7.95;52.18;96961.13;5031242;28;20190;-78
2021/03/02 10:13:58;;;;;;;11.37;8.57;;;;;;;8.08;51.86;96959.44;5032298;28;20226;-79
2021/03/02 10:16:30;;;;;;;9.53;7.87;;;;;;;8.16;51.94;96957.19;5016003;28;20232;-75
2021/03/02 10:18:59;;;;;;;12.03;8.67;;;;;;;8.18;51.77;96957.91;5026966;28;20182;-75
2021/03/02 10:21:27;;;;;;;9.50;7.93;;;;;;;8.30;52.03;96965.81;5010313;28;20270;-75
2021/03/02 10:23:56;;;;;;;11.70;8.40;;;;;;;8.44;51.84;96966.63;5026693;28;20175;-75
2021/03/02 10:26:27;;;;;;;13.10;9.13;;;;;;;8.47;50.96;96961.25;5021117;28;20270;-75
2021/03/02 10:28:52;;;;;;;12.13;8.17;;;;;;;8.43;50.71;96964.16;5030358;28;20261;-75
2021/03/02 10:31:18;;;;;;;10.47;8.90;;;;;;;8.45;50.62;96964.88;5024629;28;20213;-79
2021/03/02 10:33:44;;;;;;;10.97;7.97;;;;;;;8.64;49.38;96967.91;5030869;28;20222;-79
2021/03/02 10:36:21;;;;;;;12.37;8.50;;;;;;;8.67;49.32;96966.91;5030711;28;20183;-79
2021/03/02 10:38:47;;;;;;;11.43;8.13;;;;;;;8.64;50.02;96973.09;5030620;28;20229;-79
2021/03/02 10:41:12;;;;;;;11.00;8.23;;;;;;;8.77;49.77;96971.34;5028923;28;20174;-79
2021/03/02 10:43:37;;;;;;;10.23;7.97;;;;;;;8.76;49.10;96974.06;5030680;28;20729;-78
2021/03/02 10:46:03;;;;;;;14.50;8.30;;;;;;;9.05;47.45;96977.28;5030456;28;20179;-79
2021/03/02 10:48:28;;;;;;;11.53;8.10;;;;;;;9.06;47.34;96969.41;5030368;28;20182;-80
2021/03/02 10:50:53;;;;;;;13.47;7.90;;;;;;;9.22;45.59;96974.38;5030031;28;20289;-79
2021/03/02 10:53:19;;;;;;;12.40;7.67;;;;;;;9.28;45.00;96978.34;5030523;28;20206;-79
2021/03/02 10:55:44;;;;;;;14.20;7.67;;;;;;;9.32;44.64;96974.56;5013941;28;20224;-77
2021/03/02 10:58:09;;;;;;;9.77;7.27;;;;;;;9.46;44.82;96981.41;5031836;28;20252;-78
2021/03/02 11:00:35;;;;;;;12.57;7.53;;;;;;;9.54;43.78;96981.69;5014096;28;20195;-79
2021/03/02 11:03:00;;;;;;;12.17;7.60;;;;;;;9.56;42.95;96977.25;5012540;28;20597;-79
2021/03/02 11:05:25;;;;;;;11.00;6.90;;;;;;;9.61;42.37;96975.97;5030488;28;20179;-79
2021/03/02 11:07:50;;;;;;;11.20;7.60;;;;;;;9.71;41.39;96977.94;5030569;28;20174;-78
2021/03/02 11:10:16;;;;;;;13.70;7.87;;;;;;;9.73;42.04;96969.13;5013996;28;20203;-79
2021/03/02 11:12:42;;;;;;;10.37;7.40;;;;;;;9.74;45.20;96969.94;5021826;28;20218;-78
2021/03/02 11:15:10;;;;;;;11.27;8.07;;;;;;;9.63;45.51;96968.94;5030174;28;20179;-79
2021/03/02 11:17:36;;;;;;;9.87;7.13;;;;;;;9.69;46.28;96972.84;5046993;28;20175;-79
2021/03/02 11:20:03;;;;;;;14.17;8.60;;;;;;;9.82;45.53;96973.66;5030301;28;20701;-78
2021/03/02 11:22:28;;;;;;;12.80;8.27;;;;;;;9.80;44.80;96967.72;5030017;28;20225;-77
2021/03/02 11:24:53;;;;;;;11.83;8.20;;;;;;;9.84;45.29;96968.38;5030203;28;20214;-79
2021/03/02 11:27:19;;;;;;;12.07;8.03;;;;;;;10.03;45.32;96967.88;5031789;28;20589;-79
2021/03/02 11:29:44;;;;;;;16.70;10.60;;;;;;;10.10;45.18;96974.31;5030399;28;20201;-79
2021/03/02 11:32:09;;;;;;;14.20;9.27;;;;;;;10.09;44.87;96965.69;5031340;28;20186;-80
2021/03/02 11:34:35;;;;;;;13.70;8.50;;;;;;;10.20;44.74;96968.34;5023087;28;20211;-79
2021/03/02 11:37:00;;;;;;;17.60;9.50;;;;;;;10.17;44.83;96959.94;5015632;28;20611;-79